sensor_id;sensor_type;location;lat;lon;timestamp;temperature;humidity
32706;DHT22;19094;50.972;3.538;2023-06-19T00:02:01;24.50;59.90
32706;DHT22;19094;50.972;3.538;2023-06-19T00:04:26;24.50;59.90
32706;DHT22;19094;50.972;3.538;2023-06-19T00:06:53;24.50;59.80
32706;DHT22;19094;50.972;3.538;2023-06-19T00:09:19;24.50;60.00
32706;DHT22;19094;50.972;3.538;2023-06-19T00:11:45;24.50;59.90
32706;DHT22;19094;50.972;3.538;2023-06-19T00:14:10;24.50;59.80
32706;DHT22;19094;50.972;3.538;2023-06-19T00:16:36;24.50;59.90
32706;DHT22;19094;50.972;3.538;2023-06-19T00:19:02;24.50;59.90
32706;DHT22;19094;50.972;3.538;2023-06-19T00:21:29;24.50;59.90
32706;DHT22;19094;50.972;3.538;2023-06-19T00:23:55;24.50;59.90
32706;DHT22;19094;50.972;3.538;2023-06-19T00:26:21;24.50;59.80
32706;DHT22;19094;50.972;3.538;2023-06-19T00:28:51;24.50;59.80
32706;DHT22;19094;50.972;3.538;2023-06-19T00:31:17;24.50;60.00
32706;DHT22;19094;50.972;3.538;2023-06-19T00:33:44;24.50;59.50
32706;DHT22;19094;50.972;3.538;2023-06-19T00:36:11;24.50;59.60
32706;DHT22;19094;50.972;3.538;2023-06-19T00:38:38;24.50;59.50
32706;DHT22;19094;50.972;3.538;2023-06-19T00:41:05;24.50;59.40
32706;DHT22;19094;50.972;3.538;2023-06-19T00:43:31;24.50;59.40
32706;DHT22;19094;50.972;3.538;2023-06-19T00:45:58;24.50;59.30
32706;DHT22;19094;50.972;3.538;2023-06-19T00:48:24;24.50;59.40
32706;DHT22;19094;50.972;3.538;2023-06-19T00:50:50;24.60;59.10
32706;DHT22;19094;50.972;3.538;2023-06-19T00:53:17;24.60;59.00
32706;DHT22;19094;50.972;3.538;2023-06-19T00:55:43;24.60;59.10
32706;DHT22;19094;50.972;3.538;2023-06-19T00:58:10;24.60;59.10
32706;DHT22;19094;50.972;3.538;2023-06-19T01:00:35;24.60;59.10
32706;DHT22;19094;50.972;3.538;2023-06-19T01:03:01;24.60;59.20
32706;DHT22;19094;50.972;3.538;2023-06-19T01:05:26;24.50;59.00
32706;DHT22;19094;50.972;3.538;2023-06-19T01:08:00;24.60;59.00
32706;DHT22;19094;50.972;3.538;2023-06-19T01:10:36;24.60;59.10
32706;DHT22;19094;50.972;3.538;2023-06-19T01:13:08;24.60;59.20
32706;DHT22;19094;50.972;3.538;2023-06-19T01:15:36;24.60;58.80
32706;DHT22;19094;50.972;3.538;2023-06-19T01:18:04;24.60;58.80
32706;DHT22;19094;50.972;3.538;2023-06-19T01:20:30;24.60;58.90
32706;DHT22;19094;50.972;3.538;2023-06-19T01:22:56;24.60;59.00
32706;DHT22;19094;50.972;3.538;2023-06-19T01:25:25;24.60;59.00
32706;DHT22;19094;50.972;3.538;2023-06-19T01:27:51;24.60;59.00
32706;DHT22;19094;50.972;3.538;2023-06-19T01:30:17;24.50;58.90
32706;DHT22;19094;50.972;3.538;2023-06-19T01:32:55;24.50;59.00
32706;DHT22;19094;50.972;3.538;2023-06-19T01:35:25;24.50;59.20
32706;DHT22;19094;50.972;3.538;2023-06-19T01:37:52;24.50;58.90
32706;DHT22;19094;50.972;3.538;2023-06-19T01:40:19;24.40;58.90
32706;DHT22;19094;50.972;3.538;2023-06-19T01:42:54;24.50;59.00
32706;DHT22;19094;50.972;3.538;2023-06-19T01:45:20;24.50;59.00
32706;DHT22;19094;50.972;3.538;2023-06-19T01:47:46;24.50;59.10
32706;DHT22;19094;50.972;3.538;2023-06-19T01:50:12;24.40;58.90
32706;DHT22;19094;50.972;3.538;2023-06-19T01:52:38;24.40;59.00
32706;DHT22;19094;50.972;3.538;2023-06-19T01:55:04;24.40;59.00
32706;DHT22;19094;50.972;3.538;2023-06-19T01:57:31;24.40;58.90
32706;DHT22;19094;50.972;3.538;2023-06-19T01:59:57;24.40;58.90
32706;DHT22;19094;50.972;3.538;2023-06-19T02:02:22;24.40;58.90
32706;DHT22;19094;50.972;3.538;2023-06-19T02:04:48;24.40;58.90
32706;DHT22;19094;50.972;3.538;2023-06-19T02:07:14;24.40;58.90
32706;DHT22;19094;50.972;3.538;2023-06-19T02:09:40;24.40;58.90
32706;DHT22;19094;50.972;3.538;2023-06-19T02:12:07;24.40;58.90
32706;DHT22;19094;50.972;3.538;2023-06-19T02:14:32;24.30;58.90
32706;DHT22;19094;50.972;3.538;2023-06-19T02:16:58;24.30;59.00
32706;DHT22;19094;50.972;3.538;2023-06-19T02:19:24;24.30;58.90
32706;DHT22;19094;50.972;3.538;2023-06-19T02:21:49;24.30;59.00
32706;DHT22;19094;50.972;3.538;2023-06-19T02:24:15;24.30;58.80
32706;DHT22;19094;50.972;3.538;2023-06-19T02:26:41;24.30;58.80
32706;DHT22;19094;50.972;3.538;2023-06-19T02:29:06;24.30;58.80
32706;DHT22;19094;50.972;3.538;2023-06-19T02:31:32;24.30;58.90
32706;DHT22;19094;50.972;3.538;2023-06-19T02:33:57;24.30;58.80
32706;DHT22;19094;50.972;3.538;2023-06-19T02:36:23;24.30;58.80
32706;DHT22;19094;50.972;3.538;2023-06-19T02:38:49;24.30;58.80
32706;DHT22;19094;50.972;3.538;2023-06-19T02:41:15;24.30;58.80
32706;DHT22;19094;50.972;3.538;2023-06-19T02:43:42;24.30;58.80
32706;DHT22;19094;50.972;3.538;2023-06-19T02:46:08;24.30;58.80
32706;DHT22;19094;50.972;3.538;2023-06-19T02:48:34;24.30;58.80
32706;DHT22;19094;50.972;3.538;2023-06-19T02:51:00;24.30;58.70
32706;DHT22;19094;50.972;3.538;2023-06-19T02:53:25;24.20;58.70
32706;DHT22;19094;50.972;3.538;2023-06-19T02:55:51;24.20;58.70
32706;DHT22;19094;50.972;3.538;2023-06-19T02:58:17;24.20;58.70
32706;DHT22;19094;50.972;3.538;2023-06-19T03:00:43;24.20;58.80
32706;DHT22;19094;50.972;3.538;2023-06-19T03:03:08;24.20;58.80
32706;DHT22;19094;50.972;3.538;2023-06-19T03:05:34;24.20;58.80
32706;DHT22;19094;50.972;3.538;2023-06-19T03:08:00;24.10;58.80
32706;DHT22;19094;50.972;3.538;2023-06-19T03:10:26;24.10;58.80
32706;DHT22;19094;50.972;3.538;2023-06-19T03:12:51;24.10;58.80
32706;DHT22;19094;50.972;3.538;2023-06-19T03:15:17;24.10;58.80
32706;DHT22;19094;50.972;3.538;2023-06-19T03:17:43;24.10;58.80
32706;DHT22;19094;50.972;3.538;2023-06-19T03:20:09;24.10;58.80
32706;DHT22;19094;50.972;3.538;2023-06-19T03:22:40;24.10;58.80
32706;DHT22;19094;50.972;3.538;2023-06-19T03:25:06;24.10;58.90
32706;DHT22;19094;50.972;3.538;2023-06-19T03:27:33;24.00;58.70
32706;DHT22;19094;50.972;3.538;2023-06-19T03:29:58;24.00;58.90
32706;DHT22;19094;50.972;3.538;2023-06-19T03:32:24;24.00;58.90
32706;DHT22;19094;50.972;3.538;2023-06-19T03:34:49;24.00;58.90
32706;DHT22;19094;50.972;3.538;2023-06-19T03:37:15;24.00;58.90
32706;DHT22;19094;50.972;3.538;2023-06-19T03:39:42;23.90;58.90
32706;DHT22;19094;50.972;3.538;2023-06-19T03:42:07;23.90;59.00
32706;DHT22;19094;50.972;3.538;2023-06-19T03:44:33;23.90;59.00
32706;DHT22;19094;50.972;3.538;2023-06-19T03:46:59;23.90;59.00
32706;DHT22;19094;50.972;3.538;2023-06-19T03:49:25;23.90;59.00
32706;DHT22;19094;50.972;3.538;2023-06-19T03:51:51;23.80;59.20
32706;DHT22;19094;50.972;3.538;2023-06-19T03:54:19;23.80;59.30
32706;DHT22;19094;50.972;3.538;2023-06-19T03:56:45;23.80;59.10
32706;DHT22;19094;50.972;3.538;2023-06-19T03:59:11;23.80;59.30
32706;DHT22;19094;50.972;3.538;2023-06-19T04:01:36;23.80;59.30
32706;DHT22;19094;50.972;3.538;2023-06-19T04:04:02;23.70;59.30
32706;DHT22;19094;50.972;3.538;2023-06-19T04:06:28;23.70;59.30
32706;DHT22;19094;50.972;3.538;2023-06-19T04:08:53;23.70;59.30
32706;DHT22;19094;50.972;3.538;2023-06-19T04:11:19;23.70;59.30
32706;DHT22;19094;50.972;3.538;2023-06-19T04:13:46;23.70;59.40
32706;DHT22;19094;50.972;3.538;2023-06-19T04:16:12;23.70;59.40
32706;DHT22;19094;50.972;3.538;2023-06-19T04:18:38;23.70;59.40
32706;DHT22;19094;50.972;3.538;2023-06-19T04:21:03;23.70;59.30
32706;DHT22;19094;50.972;3.538;2023-06-19T04:23:29;23.70;59.30
32706;DHT22;19094;50.972;3.538;2023-06-19T04:25:55;23.70;59.30
32706;DHT22;19094;50.972;3.538;2023-06-19T04:28:20;23.70;59.30
32706;DHT22;19094;50.972;3.538;2023-06-19T04:30:46;23.70;59.20
32706;DHT22;19094;50.972;3.538;2023-06-19T04:33:12;23.70;59.30
32706;DHT22;19094;50.972;3.538;2023-06-19T04:35:37;23.70;59.30
32706;DHT22;19094;50.972;3.538;2023-06-19T04:38:06;23.70;59.30
32706;DHT22;19094;50.972;3.538;2023-06-19T04:40:32;23.70;59.20
32706;DHT22;19094;50.972;3.538;2023-06-19T04:42:58;23.70;59.10
32706;DHT22;19094;50.972;3.538;2023-06-19T04:45:24;23.70;59.10
32706;DHT22;19094;50.972;3.538;2023-06-19T04:47:50;23.60;59.10
32706;DHT22;19094;50.972;3.538;2023-06-19T04:50:15;23.70;59.10
32706;DHT22;19094;50.972;3.538;2023-06-19T04:52:41;23.60;59.00
32706;DHT22;19094;50.972;3.538;2023-06-19T04:55:08;23.60;59.20
32706;DHT22;19094;50.972;3.538;2023-06-19T04:57:39;23.60;59.00
32706;DHT22;19094;50.972;3.538;2023-06-19T05:00:06;23.60;59.10
32706;DHT22;19094;50.972;3.538;2023-06-19T05:02:33;23.60;58.90
32706;DHT22;19094;50.972;3.538;2023-06-19T05:04:59;23.60;59.10
32706;DHT22;19094;50.972;3.538;2023-06-19T05:07:29;23.50;59.10
32706;DHT22;19094;50.972;3.538;2023-06-19T05:09:56;23.60;59.00
32706;DHT22;19094;50.972;3.538;2023-06-19T05:12:21;23.60;59.00
32706;DHT22;19094;50.972;3.538;2023-06-19T05:14:47;23.60;59.00
32706;DHT22;19094;50.972;3.538;2023-06-19T05:17:12;23.50;59.10
32706;DHT22;19094;50.972;3.538;2023-06-19T05:19:38;23.50;59.10
32706;DHT22;19094;50.972;3.538;2023-06-19T05:22:18;23.50;59.00
32706;DHT22;19094;50.972;3.538;2023-06-19T05:24:44;23.50;58.80
32706;DHT22;19094;50.972;3.538;2023-06-19T05:27:10;23.50;59.10
32706;DHT22;19094;50.972;3.538;2023-06-19T05:29:36;23.50;58.90
32706;DHT22;19094;50.972;3.538;2023-06-19T05:32:01;23.50;58.90
32706;DHT22;19094;50.972;3.538;2023-06-19T05:34:27;23.50;58.90
32706;DHT22;19094;50.972;3.538;2023-06-19T05:36:53;23.60;58.90
32706;DHT22;19094;50.972;3.538;2023-06-19T05:39:18;23.60;58.80
32706;DHT22;19094;50.972;3.538;2023-06-19T05:41:44;23.60;58.60
32706;DHT22;19094;50.972;3.538;2023-06-19T05:44:11;23.60;58.60
32706;DHT22;19094;50.972;3.538;2023-06-19T05:46:41;23.60;58.60
32706;DHT22;19094;50.972;3.538;2023-06-19T05:49:07;23.60;58.80
32706;DHT22;19094;50.972;3.538;2023-06-19T05:51:32;23.60;58.50
32706;DHT22;19094;50.972;3.538;2023-06-19T05:53:58;23.60;58.60
32706;DHT22;19094;50.972;3.538;2023-06-19T05:56:32;23.60;58.60
32706;DHT22;19094;50.972;3.538;2023-06-19T05:59:02;23.60;58.60
32706;DHT22;19094;50.972;3.538;2023-06-19T06:01:28;23.60;58.50
32706;DHT22;19094;50.972;3.538;2023-06-19T06:03:55;23.60;58.40
32706;DHT22;19094;50.972;3.538;2023-06-19T06:06:22;23.60;58.50
32706;DHT22;19094;50.972;3.538;2023-06-19T06:08:47;23.60;58.50
32706;DHT22;19094;50.972;3.538;2023-06-19T06:11:13;23.60;58.50
32706;DHT22;19094;50.972;3.538;2023-06-19T06:13:39;23.60;58.40
32706;DHT22;19094;50.972;3.538;2023-06-19T06:16:04;23.60;58.50
32706;DHT22;19094;50.972;3.538;2023-06-19T06:18:30;23.60;58.50
32706;DHT22;19094;50.972;3.538;2023-06-19T06:20:55;23.70;58.30
32706;DHT22;19094;50.972;3.538;2023-06-19T06:23:21;23.60;58.30
32706;DHT22;19094;50.972;3.538;2023-06-19T06:25:47;23.60;58.40
32706;DHT22;19094;50.972;3.538;2023-06-19T06:28:13;23.60;58.90
32706;DHT22;19094;50.972;3.538;2023-06-19T06:30:40;23.70;58.20
32706;DHT22;19094;50.972;3.538;2023-06-19T06:33:05;23.70;58.20
32706;DHT22;19094;50.972;3.538;2023-06-19T06:35:31;23.60;58.20
32706;DHT22;19094;50.972;3.538;2023-06-19T06:37:57;23.60;58.40
32706;DHT22;19094;50.972;3.538;2023-06-19T06:40:22;23.50;58.40
32706;DHT22;19094;50.972;3.538;2023-06-19T06:42:48;23.50;58.30
32706;DHT22;19094;50.972;3.538;2023-06-19T06:45:14;23.50;58.40
32706;DHT22;19094;50.972;3.538;2023-06-19T06:47:40;23.50;58.40
32706;DHT22;19094;50.972;3.538;2023-06-19T06:50:07;23.50;58.60
32706;DHT22;19094;50.972;3.538;2023-06-19T06:52:32;23.50;58.50
32706;DHT22;19094;50.972;3.538;2023-06-19T06:54:58;23.50;58.30
32706;DHT22;19094;50.972;3.538;2023-06-19T06:57:24;23.60;58.20
32706;DHT22;19094;50.972;3.538;2023-06-19T06:59:50;23.60;58.20
32706;DHT22;19094;50.972;3.538;2023-06-19T07:02:16;23.50;58.20
32706;DHT22;19094;50.972;3.538;2023-06-19T07:04:41;23.50;58.30
32706;DHT22;19094;50.972;3.538;2023-06-19T07:07:07;23.50;58.40
32706;DHT22;19094;50.972;3.538;2023-06-19T07:09:34;23.60;58.40
32706;DHT22;19094;50.972;3.538;2023-06-19T07:12:00;23.60;58.10
32706;DHT22;19094;50.972;3.538;2023-06-19T07:14:27;23.60;58.20
32706;DHT22;19094;50.972;3.538;2023-06-19T07:16:53;23.60;58.20
32706;DHT22;19094;50.972;3.538;2023-06-19T07:19:18;23.60;58.30
32706;DHT22;19094;50.972;3.538;2023-06-19T07:21:44;23.70;58.20
32706;DHT22;19094;50.972;3.538;2023-06-19T07:24:10;23.60;58.20
32706;DHT22;19094;50.972;3.538;2023-06-19T07:26:35;23.70;58.10
32706;DHT22;19094;50.972;3.538;2023-06-19T07:29:01;23.70;58.00
32706;DHT22;19094;50.972;3.538;2023-06-19T07:31:27;23.80;57.90
32706;DHT22;19094;50.972;3.538;2023-06-19T07:33:52;23.80;57.90
32706;DHT22;19094;50.972;3.538;2023-06-19T07:36:18;23.80;57.90
32706;DHT22;19094;50.972;3.538;2023-06-19T07:38:44;23.80;57.90
32706;DHT22;19094;50.972;3.538;2023-06-19T07:41:10;23.80;57.60
32706;DHT22;19094;50.972;3.538;2023-06-19T07:43:37;23.80;57.50
32706;DHT22;19094;50.972;3.538;2023-06-19T07:46:03;23.90;57.60
32706;DHT22;19094;50.972;3.538;2023-06-19T07:48:29;23.90;57.60
32706;DHT22;19094;50.972;3.538;2023-06-19T07:50:55;23.90;57.50
32706;DHT22;19094;50.972;3.538;2023-06-19T07:53:21;23.90;57.50
32706;DHT22;19094;50.972;3.538;2023-06-19T07:55:47;23.90;57.50
32706;DHT22;19094;50.972;3.538;2023-06-19T07:58:12;23.90;57.40
32706;DHT22;19094;50.972;3.538;2023-06-19T08:00:38;23.90;57.50
32706;DHT22;19094;50.972;3.538;2023-06-19T08:03:05;23.90;57.40
32706;DHT22;19094;50.972;3.538;2023-06-19T08:05:30;23.90;57.30
32706;DHT22;19094;50.972;3.538;2023-06-19T08:07:58;24.00;57.20
32706;DHT22;19094;50.972;3.538;2023-06-19T08:10:23;24.00;57.20
32706;DHT22;19094;50.972;3.538;2023-06-19T08:12:49;24.00;56.80
32706;DHT22;19094;50.972;3.538;2023-06-19T08:15:15;24.10;57.00
32706;DHT22;19094;50.972;3.538;2023-06-19T08:17:41;24.00;56.90
32706;DHT22;19094;50.972;3.538;2023-06-19T08:20:08;24.00;56.80
32706;DHT22;19094;50.972;3.538;2023-06-19T08:22:35;24.00;57.00
32706;DHT22;19094;50.972;3.538;2023-06-19T08:25:00;24.10;56.70
32706;DHT22;19094;50.972;3.538;2023-06-19T08:27:26;24.10;56.70
32706;DHT22;19094;50.972;3.538;2023-06-19T08:29:52;24.10;56.50
32706;DHT22;19094;50.972;3.538;2023-06-19T08:32:17;24.20;56.40
32706;DHT22;19094;50.972;3.538;2023-06-19T08:34:43;24.20;56.00
32706;DHT22;19094;50.972;3.538;2023-06-19T08:37:09;24.30;56.00
32706;DHT22;19094;50.972;3.538;2023-06-19T08:39:35;24.30;55.80
32706;DHT22;19094;50.972;3.538;2023-06-19T08:42:10;24.40;55.80
32706;DHT22;19094;50.972;3.538;2023-06-19T08:44:36;24.40;55.80
32706;DHT22;19094;50.972;3.538;2023-06-19T08:47:03;24.50;55.80
32706;DHT22;19094;50.972;3.538;2023-06-19T08:49:34;24.40;55.70
32706;DHT22;19094;50.972;3.538;2023-06-19T08:52:03;24.50;55.60
32706;DHT22;19094;50.972;3.538;2023-06-19T08:54:29;24.50;55.80
32706;DHT22;19094;50.972;3.538;2023-06-19T08:56:55;24.50;55.90
32706;DHT22;19094;50.972;3.538;2023-06-19T08:59:20;24.50;55.80
32706;DHT22;19094;50.972;3.538;2023-06-19T09:01:51;24.60;55.80
32706;DHT22;19094;50.972;3.538;2023-06-19T09:04:22;24.60;55.60
32706;DHT22;19094;50.972;3.538;2023-06-19T09:06:53;24.60;55.60
32706;DHT22;19094;50.972;3.538;2023-06-19T09:09:19;24.60;55.50
32706;DHT22;19094;50.972;3.538;2023-06-19T09:12:15;24.70;55.20
32706;DHT22;19094;50.972;3.538;2023-06-19T09:14:44;24.80;55.00
32706;DHT22;19094;50.972;3.538;2023-06-19T09:17:20;24.80;55.30
32706;DHT22;19094;50.972;3.538;2023-06-19T09:19:54;24.80;55.50
32706;DHT22;19094;50.972;3.538;2023-06-19T09:22:23;24.80;55.20
32706;DHT22;19094;50.972;3.538;2023-06-19T09:24:50;24.80;55.50
32706;DHT22;19094;50.972;3.538;2023-06-19T09:27:17;24.80;54.90
32706;DHT22;19094;50.972;3.538;2023-06-19T09:29:45;24.90;54.70
32706;DHT22;19094;50.972;3.538;2023-06-19T09:32:26;24.90;54.60
32706;DHT22;19094;50.972;3.538;2023-06-19T09:34:55;25.00;54.20
32706;DHT22;19094;50.972;3.538;2023-06-19T09:37:29;25.00;54.20
32706;DHT22;19094;50.972;3.538;2023-06-19T09:39:57;25.10;54.30
32706;DHT22;19094;50.972;3.538;2023-06-19T09:42:31;25.10;54.30
32706;DHT22;19094;50.972;3.538;2023-06-19T09:45:04;25.10;54.30
32706;DHT22;19094;50.972;3.538;2023-06-19T09:47:37;25.10;54.30
32706;DHT22;19094;50.972;3.538;2023-06-19T09:50:05;25.20;54.00
32706;DHT22;19094;50.972;3.538;2023-06-19T09:52:32;25.20;53.90
32706;DHT22;19094;50.972;3.538;2023-06-19T09:55:01;25.30;53.90
32706;DHT22;19094;50.972;3.538;2023-06-19T09:57:28;25.30;53.70
32706;DHT22;19094;50.972;3.538;2023-06-19T09:59:55;25.40;53.60
32706;DHT22;19094;50.972;3.538;2023-06-19T10:02:22;25.40;53.50
32706;DHT22;19094;50.972;3.538;2023-06-19T10:04:53;25.40;53.40
32706;DHT22;19094;50.972;3.538;2023-06-19T10:07:33;25.50;53.20
32706;DHT22;19094;50.972;3.538;2023-06-19T10:10:05;25.50;53.10
32706;DHT22;19094;50.972;3.538;2023-06-19T10:12:45;25.50;53.30
32706;DHT22;19094;50.972;3.538;2023-06-19T10:15:19;25.50;53.30
32706;DHT22;19094;50.972;3.538;2023-06-19T10:20:32;25.50;53.40
32706;DHT22;19094;50.972;3.538;2023-06-19T10:23:14;25.50;53.40
32706;DHT22;19094;50.972;3.538;2023-06-19T10:26:05;25.60;53.30
32706;DHT22;19094;50.972;3.538;2023-06-19T10:28:31;25.50;53.50
32706;DHT22;19094;50.972;3.538;2023-06-19T10:33:32;25.60;52.90
32706;DHT22;19094;50.972;3.538;2023-06-19T10:35:58;25.60;53.00
32706;DHT22;19094;50.972;3.538;2023-06-19T10:38:25;25.60;53.10
32706;DHT22;19094;50.972;3.538;2023-06-19T10:40:51;25.60;52.70
32706;DHT22;19094;50.972;3.538;2023-06-19T10:43:21;25.70;52.40
32706;DHT22;19094;50.972;3.538;2023-06-19T10:45:53;25.70;52.60
32706;DHT22;19094;50.972;3.538;2023-06-19T10:48:24;25.70;52.80
32706;DHT22;19094;50.972;3.538;2023-06-19T10:50:50;25.80;52.60
32706;DHT22;19094;50.972;3.538;2023-06-19T10:53:32;25.80;52.50
32706;DHT22;19094;50.972;3.538;2023-06-19T10:55:59;25.80;52.50
32706;DHT22;19094;50.972;3.538;2023-06-19T10:58:26;25.80;52.80
32706;DHT22;19094;50.972;3.538;2023-06-19T11:00:52;25.80;52.80
32706;DHT22;19094;50.972;3.538;2023-06-19T11:03:19;25.80;53.30
32706;DHT22;19094;50.972;3.538;2023-06-19T11:05:45;25.90;52.30
32706;DHT22;19094;50.972;3.538;2023-06-19T11:08:21;25.90;52.20
32706;DHT22;19094;50.972;3.538;2023-06-19T11:10:48;25.90;52.40
32706;DHT22;19094;50.972;3.538;2023-06-19T11:13:18;26.00;52.10
32706;DHT22;19094;50.972;3.538;2023-06-19T11:15:44;25.90;52.10
32706;DHT22;19094;50.972;3.538;2023-06-19T11:18:10;25.90;52.20
32706;DHT22;19094;50.972;3.538;2023-06-19T11:20:51;25.90;52.20
32706;DHT22;19094;50.972;3.538;2023-06-19T11:23:27;26.00;52.40
32706;DHT22;19094;50.972;3.538;2023-06-19T11:25:54;26.00;52.40
32706;DHT22;19094;50.972;3.538;2023-06-19T11:28:22;26.10;52.20
32706;DHT22;19094;50.972;3.538;2023-06-19T11:30:57;26.10;52.10
32706;DHT22;19094;50.972;3.538;2023-06-19T11:33:22;26.20;51.80
32706;DHT22;19094;50.972;3.538;2023-06-19T11:35:52;26.20;51.10
32706;DHT22;19094;50.972;3.538;2023-06-19T11:38:25;26.20;51.60
32706;DHT22;19094;50.972;3.538;2023-06-19T11:40:52;26.20;51.50
32706;DHT22;19094;50.972;3.538;2023-06-19T11:43:31;26.30;51.60
32706;DHT22;19094;50.972;3.538;2023-06-19T11:46:04;26.40;51.60
32706;DHT22;19094;50.972;3.538;2023-06-19T11:48:30;26.40;51.40
32706;DHT22;19094;50.972;3.538;2023-06-19T11:50:56;26.40;51.10
32706;DHT22;19094;50.972;3.538;2023-06-19T11:53:23;26.40;51.30
32706;DHT22;19094;50.972;3.538;2023-06-19T11:55:50;26.40;51.20
32706;DHT22;19094;50.972;3.538;2023-06-19T11:58:16;26.50;50.90
32706;DHT22;19094;50.972;3.538;2023-06-19T12:00:42;26.50;50.60
32706;DHT22;19094;50.972;3.538;2023-06-19T12:03:08;26.60;50.20
32706;DHT22;19094;50.972;3.538;2023-06-19T12:05:35;26.60;50.10
32706;DHT22;19094;50.972;3.538;2023-06-19T12:08:01;26.70;50.10
32706;DHT22;19094;50.972;3.538;2023-06-19T12:10:28;26.70;50.30
32706;DHT22;19094;50.972;3.538;2023-06-19T12:12:54;26.70;50.30
32706;DHT22;19094;50.972;3.538;2023-06-19T12:15:19;26.80;49.70
32706;DHT22;19094;50.972;3.538;2023-06-19T12:17:46;26.80;50.00
32706;DHT22;19094;50.972;3.538;2023-06-19T12:20:12;26.90;49.50
32706;DHT22;19094;50.972;3.538;2023-06-19T12:22:39;27.00;49.40
32706;DHT22;19094;50.972;3.538;2023-06-19T12:25:05;27.00;49.10
32706;DHT22;19094;50.972;3.538;2023-06-19T12:27:31;27.00;48.60
32706;DHT22;19094;50.972;3.538;2023-06-19T12:29:57;27.10;49.20
32706;DHT22;19094;50.972;3.538;2023-06-19T12:32:23;27.20;48.50
32706;DHT22;19094;50.972;3.538;2023-06-19T12:34:49;27.20;48.60
32706;DHT22;19094;50.972;3.538;2023-06-19T12:37:22;27.20;48.70
32706;DHT22;19094;50.972;3.538;2023-06-19T12:39:52;27.30;48.60
32706;DHT22;19094;50.972;3.538;2023-06-19T12:42:17;27.40;48.10
32706;DHT22;19094;50.972;3.538;2023-06-19T12:44:43;27.40;48.60
32706;DHT22;19094;50.972;3.538;2023-06-19T12:47:13;27.40;49.00
32706;DHT22;19094;50.972;3.538;2023-06-19T12:49:38;27.50;49.00
32706;DHT22;19094;50.972;3.538;2023-06-19T12:52:04;27.50;48.60
32706;DHT22;19094;50.972;3.538;2023-06-19T12:54:30;27.60;47.60
32706;DHT22;19094;50.972;3.538;2023-06-19T12:56:57;27.60;47.30
32706;DHT22;19094;50.972;3.538;2023-06-19T12:59:22;27.80;47.20
32706;DHT22;19094;50.972;3.538;2023-06-19T13:01:48;27.90;47.20
32706;DHT22;19094;50.972;3.538;2023-06-19T13:04:14;27.90;48.40
32706;DHT22;19094;50.972;3.538;2023-06-19T13:06:40;28.10;47.10
32706;DHT22;19094;50.972;3.538;2023-06-19T13:09:06;28.10;46.90
32706;DHT22;19094;50.972;3.538;2023-06-19T13:11:33;28.20;46.60
32706;DHT22;19094;50.972;3.538;2023-06-19T13:14:02;28.30;46.50
32706;DHT22;19094;50.972;3.538;2023-06-19T13:16:27;28.40;45.90
32706;DHT22;19094;50.972;3.538;2023-06-19T13:18:53;28.50;45.70
32706;DHT22;19094;50.972;3.538;2023-06-19T13:21:19;28.50;45.90
32706;DHT22;19094;50.972;3.538;2023-06-19T13:23:45;28.50;45.80
32706;DHT22;19094;50.972;3.538;2023-06-19T13:26:10;28.60;45.70
32706;DHT22;19094;50.972;3.538;2023-06-19T13:28:36;28.60;45.30
32706;DHT22;19094;50.972;3.538;2023-06-19T13:31:02;28.60;45.30
32706;DHT22;19094;50.972;3.538;2023-06-19T13:33:28;28.60;45.70
32706;DHT22;19094;50.972;3.538;2023-06-19T13:35:54;28.50;45.70
32706;DHT22;19094;50.972;3.538;2023-06-19T13:38:19;28.40;46.00
32706;DHT22;19094;50.972;3.538;2023-06-19T13:40:47;28.40;45.50
32706;DHT22;19094;50.972;3.538;2023-06-19T13:43:12;28.50;45.90
32706;DHT22;19094;50.972;3.538;2023-06-19T13:45:38;28.50;45.30
32706;DHT22;19094;50.972;3.538;2023-06-19T13:48:05;28.60;45.30
32706;DHT22;19094;50.972;3.538;2023-06-19T13:50:31;28.70;46.00
32706;DHT22;19094;50.972;3.538;2023-06-19T13:52:58;28.70;44.90
32706;DHT22;19094;50.972;3.538;2023-06-19T13:55:24;28.80;45.10
32706;DHT22;19094;50.972;3.538;2023-06-19T13:57:50;29.00;44.50
32706;DHT22;19094;50.972;3.538;2023-06-19T14:00:16;29.00;44.50
32706;DHT22;19094;50.972;3.538;2023-06-19T14:02:41;29.10;44.70
32706;DHT22;19094;50.972;3.538;2023-06-19T14:05:08;29.10;45.50
32706;DHT22;19094;50.972;3.538;2023-06-19T14:07:35;29.10;44.10
32706;DHT22;19094;50.972;3.538;2023-06-19T14:10:02;29.20;44.40
32706;DHT22;19094;50.972;3.538;2023-06-19T14:12:29;29.20;43.80
32706;DHT22;19094;50.972;3.538;2023-06-19T14:14:55;29.20;44.40
32706;DHT22;19094;50.972;3.538;2023-06-19T14:17:22;29.20;43.20
32706;DHT22;19094;50.972;3.538;2023-06-19T14:19:48;29.30;43.50
32706;DHT22;19094;50.972;3.538;2023-06-19T14:22:14;29.30;43.90
32706;DHT22;19094;50.972;3.538;2023-06-19T14:24:40;29.40;44.10
32706;DHT22;19094;50.972;3.538;2023-06-19T14:27:05;29.40;43.70
32706;DHT22;19094;50.972;3.538;2023-06-19T14:29:31;29.50;42.90
32706;DHT22;19094;50.972;3.538;2023-06-19T14:31:57;29.60;43.60
32706;DHT22;19094;50.972;3.538;2023-06-19T14:34:22;29.60;42.90
32706;DHT22;19094;50.972;3.538;2023-06-19T14:36:48;29.60;43.10
32706;DHT22;19094;50.972;3.538;2023-06-19T14:39:14;29.70;43.00
32706;DHT22;19094;50.972;3.538;2023-06-19T14:41:39;29.70;42.80
32706;DHT22;19094;50.972;3.538;2023-06-19T14:44:05;29.80;42.70
32706;DHT22;19094;50.972;3.538;2023-06-19T14:46:31;29.70;42.70
32706;DHT22;19094;50.972;3.538;2023-06-19T14:48:58;29.80;43.10
32706;DHT22;19094;50.972;3.538;2023-06-19T14:51:25;29.80;42.80
32706;DHT22;19094;50.972;3.538;2023-06-19T14:53:51;29.70;42.60
32706;DHT22;19094;50.972;3.538;2023-06-19T14:56:16;29.70;43.70
32706;DHT22;19094;50.972;3.538;2023-06-19T14:58:42;29.60;43.10
32706;DHT22;19094;50.972;3.538;2023-06-19T15:01:08;29.40;43.50
32706;DHT22;19094;50.972;3.538;2023-06-19T15:03:35;29.40;43.90
32706;DHT22;19094;50.972;3.538;2023-06-19T15:06:00;29.30;43.80
32706;DHT22;19094;50.972;3.538;2023-06-19T15:08:27;29.30;43.90
32706;DHT22;19094;50.972;3.538;2023-06-19T15:10:53;29.20;44.00
32706;DHT22;19094;50.972;3.538;2023-06-19T15:13:19;29.20;45.20
32706;DHT22;19094;50.972;3.538;2023-06-19T15:15:45;29.10;45.30
32706;DHT22;19094;50.972;3.538;2023-06-19T15:18:11;29.10;44.90
32706;DHT22;19094;50.972;3.538;2023-06-19T15:20:36;29.00;45.00
32706;DHT22;19094;50.972;3.538;2023-06-19T15:23:06;29.10;44.60
32706;DHT22;19094;50.972;3.538;2023-06-19T15:25:32;29.20;44.00
32706;DHT22;19094;50.972;3.538;2023-06-19T15:27:57;29.20;43.30
32706;DHT22;19094;50.972;3.538;2023-06-19T15:30:23;29.30;44.10
32706;DHT22;19094;50.972;3.538;2023-06-19T15:32:49;29.30;43.70
32706;DHT22;19094;50.972;3.538;2023-06-19T15:35:15;29.30;43.50